Time;durP1;ratioP1;P1;durP2;ratioP2;P2;SDS_P1;SDS_P2;PMS_P1;PMS_P2;Temp;Humidity;BMP_temperature;BMP_pressure;BME280_temperature;BME280_humidity;BME280_pressure;Samples;Min_cycle;Max_cycle;Signal;HPM_P1;HPM_P2
2024/01/11 00:00:12;;;;;;;11.57;5.07;;;26.80;82.20;;;;;;5074336;28;20427;-88
2024/01/11 00:02:39;;;;;;;10.55;5.03;;;26.80;82.20;;;;;;5074574;28;20020;-81
2024/01/11 00:05:07;;;;;;;11.02;5.20;;;26.80;82.40;;;;;;5074513;28;20042;-81
2024/01/11 00:07:37;;;;;;;15.32;5.78;;;26.80;82.40;;;;;;5074199;28;20383;-85
2024/01/11 00:10:05;;;;;;;12.35;6.25;;;26.80;82.40;;;;;;5074133;28;20031;-83
2024/01/11 00:12:32;;;;;;;12.05;5.93;;;26.80;82.30;;;;;;5074407;28;20029;-87
2024/01/11 00:15:00;;;;;;;9.98;5.43;;;26.80;82.10;;;;;;5073957;28;20079;-85
2024/01/11 00:17:27;;;;;;;14.82;6.85;;;26.80;82.00;;;;;;5074136;28;20032;-84
2024/01/11 00:19:54;;;;;;;15.65;6.32;;;26.80;82.10;;;;;;5073952;28;20033;-86
2024/01/11 00:22:22;;;;;;;12.50;5.85;;;26.80;81.90;;;;;;5074080;28;20028;-80
2024/01/11 00:24:49;;;;;;;9.52;5.70;;;26.80;81.70;;;;;;5073663;28;20039;-83
2024/01/11 00:27:17;;;;;;;12.18;6.10;;;26.80;81.70;;;;;;5074125;28;20055;-86
2024/01/11 00:29:44;;;;;;;15.65;7.28;;;26.80;81.80;;;;;;5055941;28;20040;-85
2024/01/11 00:32:11;;;;;;;12.40;6.18;;;26.90;81.70;;;;;;5073883;28;20098;-87
2024/01/11 00:34:39;;;;;;;15.43;7.00;;;26.80;81.60;;;;;;5074055;28;20021;-81
2024/01/11 00:37:06;;;;;;;11.00;6.70;;;26.80;81.50;;;;;;5056063;28;20021;-79
2024/01/11 00:39:34;;;;;;;14.15;7.15;;;26.90;81.40;;;;;;5058023;28;20111;-86
2024/01/11 00:42:02;;;;;;;11.45;6.82;;;26.80;81.30;;;;;;5081720;28;20032;-77
2024/01/11 00:44:29;;;;;;;12.82;6.68;;;26.90;81.40;;;;;;5084264;28;20020;-82
2024/01/11 00:46:57;;;;;;;13.60;6.75;;;26.90;81.10;;;;;;5073825;28;20024;-85
2024/01/11 00:49:24;;;;;;;10.57;6.78;;;27.00;81.20;;;;;;5055888;28;20566;-86
2024/01/11 00:51:51;;;;;;;13.70;6.65;;;26.90;81.00;;;;;;5073398;28;20030;-84
2024/01/11 00:54:19;;;;;;;13.65;7.35;;;26.90;80.80;;;;;;5073650;28;20419;-82
2024/01/11 00:56:48;;;;;;;14.80;6.82;;;26.90;80.90;;;;;;5073637;28;20502;-86
2024/01/11 00:59:15;;;;;;;9.48;6.45;;;26.90;80.90;;;;;;5073357;28;20017;-84
2024/01/11 01:01:50;;;;;;;12.93;6.45;;;26.90;80.80;;;;;;5073441;28;20525;-81
2024/01/11 01:04:18;;;;;;;13.50;6.30;;;26.80;80.80;;;;;;5073249;28;20472;-85
2024/01/11 01:06:45;;;;;;;9.98;6.40;;;26.90;81.00;;;;;;5055516;28;20036;-84
2024/01/11 01:09:13;;;;;;;11.73;7.05;;;27.00;80.90;;;;;;5073378;28;20051;-84
2024/01/11 01:11:44;;;;;;;15.50;6.45;;;27.00;80.70;;;;;;5073812;28;20028;-84
2024/01/11 01:14:11;;;;;;;14.45;6.30;;;27.10;80.50;;;;;;5074930;28;20563;-87
2024/01/11 01:16:38;;;;;;;15.02;6.43;;;27.30;80.20;;;;;;5076109;28;20036;-86
2024/01/11 01:19:11;;;;;;;10.70;6.50;;;27.30;79.70;;;;;;5076281;28;20016;-85
2024/01/11 01:21:38;;;;;;;12.02;6.30;;;27.20;79.20;;;;;;5076432;28;20024;-94
2024/01/11 01:24:08;;;;;;;11.38;6.00;;;27.20;79.40;;;;;;5076146;28;20077;-86
2024/01/11 01:26:35;;;;;;;11.68;6.60;;;27.30;79.20;;;;;;5073822;28;20108;-86
2024/01/11 01:29:02;;;;;;;8.85;6.15;;;27.20;79.40;;;;;;5074762;28;20040;-90
2024/01/11 01:31:37;;;;;;;11.65;6.40;;;27.30;79.30;;;;;;5074633;28;20486;-87
2024/01/11 01:34:05;;;;;;;9.52;6.35;;;27.40;79.00;;;;;;5054886;28;20055;-85
2024/01/11 01:36:32;;;;;;;14.35;6.53;;;27.40;78.80;;;;;;5055825;28;20033;-88
2024/01/11 01:38:59;;;;;;;9.80;5.95;;;27.40;78.60;;;;;;5073039;28;20043;-87
2024/01/11 01:41:27;;;;;;;10.75;6.40;;;27.50;78.60;;;;;;5073163;28;20029;-83
2024/01/11 01:43:54;;;;;;;9.93;5.72;;;27.50;78.70;;;;;;5055315;28;20062;-80
2024/01/11 01:46:26;;;;;;;7.63;5.32;;;27.40;78.40;;;;;;5074419;28;20029;-92
2024/01/11 01:48:57;;;;;;;8.70;5.60;;;27.40;78.50;;;;;;5074535;28;20016;-81
2024/01/11 01:51:27;;;;;;;8.73;5.63;;;27.40;78.60;;;;;;5076692;28;20036;-80
2024/01/11 01:53:56;;;;;;;8.35;5.60;;;27.40;78.50;;;;;;5075016;28;20420;-89
2024/01/11 01:56:23;;;;;;;10.07;5.90;;;27.50;78.50;;;;;;5074852;28;20041;-83
2024/01/11 01:58:53;;;;;;;10.82;5.70;;;27.60;78.60;;;;;;5077418;28;20024;-86
2024/01/11 02:01:27;;;;;;;9.45;6.05;;;27.70;78.10;;;;;;5080358;28;20036;-82
2024/01/11 02:03:56;;;;;;;9.70;6.05;;;27.80;77.90;;;;;;5075719;28;20039;-81
2024/01/11 02:06:25;;;;;;;8.10;5.65;;;27.80;77.60;;;;;;5075161;28;20025;-83
2024/01/11 02:08:56;;;;;;;12.75;5.22;;;27.90;77.20;;;;;;5073963;28;20108;-83
2024/01/11 02:11:24;;;;;;;7.97;5.03;;;27.90;76.50;;;;;;5073240;28;20029;-86
2024/01/11 02:13:52;;;;;;;6.97;4.88;;;27.90;76.90;;;;;;5072888;28;20044;-84
2024/01/11 02:16:19;;;;;;;7.32;5.10;;;27.90;76.70;;;;;;5072957;28;20041;-90
2024/01/11 02:18:47;;;;;;;8.40;5.75;;;27.90;76.70;;;;;;5073153;28;20021;-90
2024/01/11 02:21:17;;;;;;;8.63;6.15;;;27.90;76.60;;;;;;5073171;28;20107;-84
2024/01/11 02:23:53;;;;;;;12.65;7.15;;;28.00;76.50;;;;;;5073132;28;20020;-81
2024/01/11 02:26:22;;;;;;;12.68;7.20;;;28.00;76.30;;;;;;5073016;28;20025;-85
2024/01/11 02:28:49;;;;;;;9.02;6.78;;;28.10;76.20;;;;;;5072972;28;20409;-84
2024/01/11 02:31:17;;;;;;;7.90;6.20;;;28.20;75.70;;;;;;5073212;28;20020;-87
2024/01/11 02:33:44;;;;;;;8.73;5.82;;;28.30;75.50;;;;;;5072404;28;20060;-89
2024/01/11 02:36:19;;;;;;;9.10;6.35;;;28.30;75.70;;;;;;5072608;28;20086;-92
2024/01/11 02:38:49;;;;;;;9.82;6.40;;;28.40;75.40;;;;;;5072713;28;20052;-83
2024/01/11 02:41:18;;;;;;;7.90;5.93;;;28.50;74.90;;;;;;5072754;28;20063;-81
2024/01/11 02:43:49;;;;;;;7.88;5.35;;;28.50;74.90;;;;;;5072419;28;20016;-80
2024/01/11 02:46:17;;;;;;;8.48;5.05;;;28.60;74.50;;;;;;5072890;28;20036;-85
2024/01/11 02:48:45;;;;;;;7.82;5.20;;;28.50;74.50;;;;;;5072721;28;20392;-85
2024/01/11 02:51:12;;;;;;;9.10;5.65;;;28.50;74.50;;;;;;5072824;28;20506;-84
2024/01/11 02:53:41;;;;;;;11.90;5.70;;;28.50;74.40;;;;;;5073062;28;20025;-90
2024/01/11 02:56:08;;;;;;;9.15;5.63;;;28.50;74.10;;;;;;5072623;28;20379;-83
2024/01/11 02:58:36;;;;;;;7.45;5.15;;;28.30;74.10;;;;;;5072403;28;20028;-83
2024/01/11 03:01:04;;;;;;;8.35;4.40;;;28.40;74.70;;;;;;5072992;28;20025;-85
2024/01/11 03:03:31;;;;;;;5.35;4.57;;;28.40;74.60;;;;;;5073006;28;20021;-89
2024/01/11 03:05:59;;;;;;;7.90;4.20;;;28.40;74.80;;;;;;5072604;28;20028;-88
2024/01/11 03:08:27;;;;;;;7.32;4.10;;;28.50;74.70;;;;;;5072954;28;20020;-81
2024/01/11 03:10:54;;;;;;;5.07;3.53;;;28.50;74.30;;;;;;5072795;28;20024;-89
2024/01/11 03:13:22;;;;;;;5.70;3.53;;;28.50;74.50;;;;;;5073316;28;20425;-84
2024/01/11 03:15:49;;;;;;;5.68;3.35;;;28.60;74.10;;;;;;5076191;28;20048;-85
2024/01/11 03:18:17;;;;;;;5.65;2.63;;;28.50;73.80;;;;;;5076234;28;20029;-89
2024/01/11 03:20:45;;;;;;;5.70;3.25;;;28.50;74.10;;;;;;5076779;28;20107;-90
2024/01/11 03:23:13;;;;;;;7.85;3.50;;;28.50;74.30;;;;;;5076986;28;20377;-90
2024/01/11 03:25:40;;;;;;;6.63;3.05;;;28.50;74.30;;;;;;5079918;28;20028;-90
2024/01/11 03:28:08;;;;;;;4.75;3.25;;;28.60;74.40;;;;;;5087110;28;20017;-79
2024/01/11 03:30:35;;;;;;;4.55;2.70;;;28.60;74.10;;;;;;5090741;28;20104;-87
2024/01/11 03:33:02;;;;;;;4.85;3.20;;;28.60;73.80;;;;;;5076624;28;20079;-89
2024/01/11 03:35:30;;;;;;;6.03;3.10;;;28.60;73.90;;;;;;5074386;28;20076;-87
2024/01/11 03:37:57;;;;;;;4.72;2.67;;;28.60;73.70;;;;;;5075467;28;20039;-88
2024/01/11 03:40:24;;;;;;;4.88;2.90;;;28.50;73.80;;;;;;5076372;28;20510;-87
2024/01/11 03:42:53;;;;;;;4.65;2.83;;;28.50;74.00;;;;;;5075569;28;20028;-90
2024/01/11 03:45:21;;;;;;;7.18;3.30;;;28.40;74.00;;;;;;5075797;28;20455;-88
2024/01/11 03:47:48;;;;;;;5.40;2.60;;;28.40;74.20;;;;;;5075054;28;20028;-89
2024/01/11 03:50:16;;;;;;;4.85;3.00;;;28.30;74.30;;;;;;5075561;28;20426;-90
2024/01/11 03:52:47;;;;;;;6.50;3.03;;;28.30;74.70;;;;;;5075365;28;20436;-90
2024/01/11 03:55:14;;;;;;;5.70;3.22;;;28.30;74.80;;;;;;5075705;28;20415;-85
2024/01/11 03:57:44;;;;;;;6.45;2.90;;;28.30;75.00;;;;;;5075345;28;20475;-90
2024/01/11 04:00:11;;;;;;;4.45;2.58;;;28.40;75.00;;;;;;5075448;28;20037;-85
2024/01/11 04:02:39;;;;;;;6.55;2.35;;;28.40;75.00;;;;;;5075468;28;20084;-89
2024/01/11 04:05:07;;;;;;;5.78;2.80;;;28.50;74.70;;;;;;5075408;28;20154;-91
2024/01/11 04:07:34;;;;;;;3.97;2.78;;;28.60;74.70;;;;;;5075157;28;20551;-91
2024/01/11 04:10:03;;;;;;;4.55;2.60;;;28.60;74.60;;;;;;5074985;28;20502;-91
2024/01/11 04:12:30;;;;;;;7.07;2.70;;;28.70;74.30;;;;;;5075185;28;20095;-91
2024/01/11 04:14:58;;;;;;;8.85;2.53;;;28.70;74.40;;;;;;5056786;28;20506;-92
2024/01/11 04:17:25;;;;;;;4.22;1.90;;;28.70;74.20;;;;;;5074738;28;20028;-84
2024/01/11 04:19:53;;;;;;;4.53;2.00;;;28.60;73.70;;;;;;5074751;28;20467;-93
2024/01/11 04:22:20;;;;;;;4.68;1.85;;;28.60;73.80;;;;;;5075168;28;20032;-87
2024/01/11 04:24:49;;;;;;;5.25;2.33;;;28.50;73.60;;;;;;5075163;28;20101;-84
2024/01/11 04:27:16;;;;;;;3.92;1.95;;;28.50;73.80;;;;;;5076281;28;20418;-85
2024/01/11 04:29:43;;;;;;;3.83;2.00;;;28.40;73.60;;;;;;5057076;28;20446;-94
2024/01/11 04:32:11;;;;;;;3.67;1.80;;;28.30;73.80;;;;;;5074711;28;20033;-87
2024/01/11 04:34:38;;;;;;;4.90;2.15;;;28.20;73.90;;;;;;5074436;28;20062;-88
2024/01/11 04:37:06;;;;;;;5.45;2.20;;;28.20;74.20;;;;;;5074476;28;20058;-86
2024/01/11 04:39:33;;;;;;;6.57;2.25;;;28.20;74.40;;;;;;5073966;28;20112;-80
2024/01/11 04:42:02;;;;;;;4.90;1.80;;;28.20;74.40;;;;;;5073766;28;20484;-80
2024/01/11 04:44:29;;;;;;;4.45;2.15;;;28.20;74.40;;;;;;5074055;28;20021;-80
2024/01/11 04:46:56;;;;;;;3.95;1.98;;;28.10;74.60;;;;;;5074007;28;20024;-84
2024/01/11 04:49:24;;;;;;;4.15;1.90;;;28.10;74.80;;;;;;5074140;28;20028;-83
2024/01/11 04:51:51;;;;;;;3.92;2.10;;;28.10;75.10;;;;;;5073799;28;20510;-81
2024/01/11 04:54:19;;;;;;;4.78;2.15;;;28.10;75.30;;;;;;5073790;28;20024;-84
2024/01/11 04:56:47;;;;;;;4.75;1.73;;;28.10;75.10;;;;;;5073741;28;20025;-87
2024/01/11 04:59:15;;;;;;;5.68;2.08;;;28.10;75.30;;;;;;5073809;28;20024;-80
2024/01/11 05:01:42;;;;;;;4.15;2.15;;;28.10;75.60;;;;;;5055567;28;20139;-79
2024/01/11 05:04:10;;;;;;;4.38;1.90;;;28.20;75.50;;;;;;5073448;28;20387;-85
2024/01/11 05:06:37;;;;;;;5.55;2.08;;;28.30;75.30;;;;;;5073573;28;20468;-88
2024/01/11 05:09:04;;;;;;;7.95;2.25;;;28.30;75.20;;;;;;5073611;28;20052;-83
2024/01/11 05:11:32;;;;;;;3.92;1.80;;;28.30;75.10;;;;;;5073197;28;20032;-85
2024/01/11 05:13:59;;;;;;;4.30;1.73;;;28.30;74.90;;;;;;5073000;28;20650;-80
2024/01/11 05:16:28;;;;;;;4.32;2.05;;;28.30;74.90;;;;;;5073546;28;20111;-85
2024/01/11 05:18:59;;;;;;;4.13;1.70;;;28.30;74.70;;;;;;5072979;28;20047;-80
2024/01/11 05:21:26;;;;;;;3.33;1.65;;;28.40;74.90;;;;;;5073153;28;20033;-81
2024/01/11 05:23:55;;;;;;;4.47;1.90;;;28.40;75.00;;;;;;5072958;28;20112;-90
2024/01/11 05:26:22;;;;;;;4.68;1.60;;;28.30;74.80;;;;;;5073178;28;20031;-86
2024/01/11 05:28:49;;;;;;;5.05;1.55;;;28.40;74.80;;;;;;5073195;28;20023;-87
2024/01/11 05:31:17;;;;;;;6.78;1.73;;;28.40;74.70;;;;;;5073333;28;20051;-87
2024/01/11 05:33:45;;;;;;;2.45;1.52;;;28.40;74.70;;;;;;5072818;28;20020;-85
2024/01/11 05:36:12;;;;;;;4.18;1.60;;;28.40;74.90;;;;;;5054297;28;20033;-84
2024/01/11 05:38:40;;;;;;;3.45;1.70;;;28.40;75.00;;;;;;5073040;28;20100;-85
2024/01/11 05:41:08;;;;;;;4.15;1.80;;;28.40;75.00;;;;;;5072695;28;20017;-82
2024/01/11 05:43:35;;;;;;;4.80;1.70;;;28.30;75.10;;;;;;5073533;28;20032;-89
2024/01/11 05:46:03;;;;;;;5.43;1.98;;;28.30;75.30;;;;;;5072952;28;20020;-87
2024/01/11 05:48:30;;;;;;;6.65;1.80;;;28.30;75.30;;;;;;5072503;28;20031;-81
2024/01/11 05:50:57;;;;;;;4.97;2.25;;;28.30;75.40;;;;;;5069479;28;20054;-79
2024/01/11 05:53:27;;;;;;;4.90;1.80;;;28.30;75.50;;;;;;5069089;28;20499;-81
2024/01/11 05:55:54;;;;;;;4.15;1.70;;;28.30;75.70;;;;;;5069512;28;20064;-80
2024/01/11 05:58:22;;;;;;;4.80;1.75;;;28.20;75.80;;;;;;5055116;28;20040;-89
2024/01/11 06:00:49;;;;;;;4.60;2.15;;;28.20;75.80;;;;;;5071470;28;20056;-80
2024/01/11 06:03:16;;;;;;;4.38;1.60;;;28.20;75.80;;;;;;5089213;28;20024;-78
2024/01/11 06:05:44;;;;;;;6.13;1.88;;;28.10;75.90;;;;;;5080392;28;20499;-83
2024/01/11 06:08:11;;;;;;;6.32;2.42;;;28.10;75.90;;;;;;5081453;28;20032;-84
2024/01/11 06:10:39;;;;;;;8.60;2.10;;;28.10;76.00;;;;;;5081657;28;20039;-89
2024/01/11 06:13:07;;;;;;;4.07;1.50;;;28.10;76.00;;;;;;5071709;28;20017;-85
2024/01/11 06:15:35;;;;;;;7.68;1.70;;;28.00;76.00;;;;;;5081074;28;20052;-84
2024/01/11 06:18:04;;;;;;;5.97;1.70;;;28.00;76.20;;;;;;5066470;28;20036;-80
2024/01/11 06:20:32;;;;;;;3.10;1.60;;;28.00;76.40;;;;;;5078386;28;20025;-78
2024/01/11 06:22:59;;;;;;;7.13;1.85;;;28.00;76.50;;;;;;5076366;28;20191;-83
2024/01/11 06:25:27;;;;;;;4.45;2.00;;;28.00;76.20;;;;;;5072657;28;20032;-83
2024/01/11 06:27:55;;;;;;;4.68;2.00;;;28.00;76.40;;;;;;5072139;28;20024;-82
2024/01/11 06:30:22;;;;;;;5.88;1.98;;;28.00;76.50;;;;;;5073222;28;20046;-83
2024/01/11 06:32:50;;;;;;;8.80;2.90;;;27.90;76.60;;;;;;5076422;28;20024;-84
2024/01/11 06:35:17;;;;;;;8.93;2.60;;;27.80;76.60;;;;;;5090499;28;20134;-89
2024/01/11 06:37:49;;;;;;;3.40;1.70;;;27.80;76.80;;;;;;5070614;28;20033;-77
2024/01/11 06:40:16;;;;;;;5.95;1.85;;;27.70;76.90;;;;;;5072457;28;20533;-86
2024/01/11 06:42:47;;;;;;;6.35;2.00;;;27.80;77.00;;;;;;5050184;28;20168;-80
2024/01/11 06:45:14;;;;;;;6.47;1.98;;;27.80;77.20;;;;;;5064518;28;20052;-90
2024/01/11 06:47:42;;;;;;;4.90;1.65;;;27.80;77.30;;;;;;5069891;28;20098;-84
2024/01/11 06:50:12;;;;;;;5.80;2.08;;;27.90;77.10;;;;;;5058693;28;20104;-85
2024/01/11 06:52:39;;;;;;;6.45;1.88;;;27.90;76.80;;;;;;5066434;28;20025;-77
2024/01/11 06:55:08;;;;;;;5.13;1.90;;;27.90;76.60;;;;;;5081838;28;20040;-90
2024/01/11 06:57:35;;;;;;;4.70;1.65;;;27.80;76.90;;;;;;5092987;28;20019;-83
2024/01/11 07:00:03;;;;;;;4.55;1.85;;;27.80;76.80;;;;;;5063062;28;20017;-85
2024/01/11 07:02:31;;;;;;;3.25;1.90;;;27.80;76.90;;;;;;5068834;28;20080;-85
2024/01/11 07:04:58;;;;;;;3.17;1.48;;;27.70;77.10;;;;;;5075159;28;20476;-87
2024/01/11 07:07:27;;;;;;;3.78;1.70;;;27.70;77.20;;;;;;5092085;28;20106;-86
2024/01/11 07:09:55;;;;;;;4.93;1.67;;;27.70;77.40;;;;;;5068315;28;20032;-80
2024/01/11 07:12:22;;;;;;;5.45;1.90;;;27.70;77.20;;;;;;5069331;28;20021;-80
2024/01/11 07:14:50;;;;;;;6.70;1.80;;;27.70;77.20;;;;;;5069694;28;20099;-89
2024/01/11 07:17:19;;;;;;;6.78;1.88;;;27.70;77.20;;;;;;5076385;28;20029;-87
2024/01/11 07:19:47;;;;;;;4.28;1.67;;;27.60;77.20;;;;;;5075364;28;20017;-79
2024/01/11 07:22:14;;;;;;;4.78;2.00;;;27.60;77.20;;;;;;5070379;28;20069;-82
2024/01/11 07:24:42;;;;;;;4.85;2.00;;;27.60;77.40;;;;;;5076147;28;20020;-82
2024/01/11 07:27:09;;;;;;;3.53;1.60;;;27.60;77.30;;;;;;5075272;28;20043;-80
2024/01/11 07:29:37;;;;;;;4.05;2.00;;;27.60;77.30;;;;;;5091587;28;20479;-82
2024/01/11 07:32:07;;;;;;;4.20;1.75;;;27.50;77.30;;;;;;5075893;28;20319;-80
2024/01/11 07:34:34;;;;;;;7.45;2.22;;;27.50;77.40;;;;;;5069020;28;20055;-80
2024/01/11 07:37:03;;;;;;;7.85;2.70;;;27.50;77.40;;;;;;5056529;28;20044;-80
2024/01/11 07:39:32;;;;;;;6.28;2.20;;;27.50;77.50;;;;;;5070136;28;20016;-80
2024/01/11 07:41:59;;;;;;;6.78;2.17;;;27.40;77.60;;;;;;5074634;28;20025;-82
2024/01/11 07:44:26;;;;;;;5.57;2.30;;;27.40;77.70;;;;;;5074477;28;20044;-88
2024/01/11 07:46:54;;;;;;;6.38;2.20;;;27.40;77.70;;;;;;5075995;28;20108;-79
2024/01/11 07:49:22;;;;;;;4.43;1.70;;;27.30;77.80;;;;;;5068445;28;20044;-79
2024/01/11 07:51:49;;;;;;;5.40;2.25;;;27.30;77.80;;;;;;5071602;28;20111;-89
2024/01/11 07:54:17;;;;;;;5.75;1.92;;;27.40;77.80;;;;;;5091071;28;20463;-89
2024/01/11 07:56:44;;;;;;;6.13;2.15;;;27.30;78.00;;;;;;5090717;28;20525;-79
2024/01/11 07:59:14;;;;;;;5.30;1.95;;;27.30;78.20;;;;;;5074088;28;20518;-82
2024/01/11 08:01:41;;;;;;;5.15;2.00;;;27.30;78.20;;;;;;5056782;28;20029;-78
2024/01/11 08:04:09;;;;;;;3.65;1.65;;;27.30;78.20;;;;;;5073393;28;20024;-79
2024/01/11 08:06:37;;;;;;;8.75;2.25;;;27.30;78.30;;;;;;5062091;28;20025;-79
2024/01/11 08:09:05;;;;;;;6.40;2.10;;;27.30;78.30;;;;;;5060996;28;20104;-80
2024/01/11 08:11:32;;;;;;;6.20;2.40;;;27.30;78.30;;;;;;5077444;28;20025;-82
2024/01/11 08:14:00;;;;;;;7.20;2.20;;;27.30;78.30;;;;;;5084163;28;20123;-81
2024/01/11 08:16:27;;;;;;;6.50;2.40;;;27.30;78.40;;;;;;5074181;28;20127;-85
2024/01/11 08:18:55;;;;;;;9.02;2.25;;;27.30;78.60;;;;;;5074336;28;20032;-80
2024/01/11 08:21:22;;;;;;;7.75;2.10;;;27.30;78.60;;;;;;5073976;28;20021;-79
2024/01/11 08:23:50;;;;;;;4.72;1.83;;;27.30;78.80;;;;;;5074738;28;20017;-80
2024/01/11 08:26:21;;;;;;;4.75;1.83;;;27.20;78.80;;;;;;5076063;28;20476;-84
2024/01/11 08:28:49;;;;;;;4.15;2.00;;;27.20;78.90;;;;;;5084290;28;20132;-80
2024/01/11 08:31:16;;;;;;;6.97;2.17;;;27.20;78.90;;;;;;5088012;28;20020;-83
2024/01/11 08:33:44;;;;;;;6.72;2.15;;;27.20;79.00;;;;;;5069425;28;20689;-89
2024/01/11 08:36:14;;;;;;;5.80;2.25;;;27.20;79.30;;;;;;5094894;28;20032;-80
2024/01/11 08:38:41;;;;;;;12.27;3.85;;;27.10;79.50;;;;;;5085651;28;20430;-81
2024/01/11 08:41:10;;;;;;;6.63;2.90;;;27.10;79.70;;;;;;5072215;28;20039;-82
2024/01/11 08:43:37;;;;;;;7.72;2.35;;;27.00;79.70;;;;;;5076695;28;20146;-78
2024/01/11 08:46:04;;;;;;;7.57;2.72;;;27.00;79.70;;;;;;5093164;28;20111;-82
2024/01/11 08:48:32;;;;;;;4.65;2.15;;;27.00;80.00;;;;;;5094578;28;20020;-79
2024/01/11 08:50:59;;;;;;;7.18;2.47;;;27.10;80.00;;;;;;5094461;28;20028;-87
2024/01/11 08:53:26;;;;;;;6.10;2.40;;;27.00;80.10;;;;;;5094693;28;20124;-85
2024/01/11 08:55:54;;;;;;;10.10;2.60;;;27.10;80.50;;;;;;5075659;28;20491;-79
2024/01/11 08:58:21;;;;;;;9.32;2.83;;;27.00;80.60;;;;;;5074809;28;20058;-82
2024/01/11 09:00:55;;;;;;;8.65;2.60;;;27.00;80.60;;;;;;5085570;28;20119;-84
2024/01/11 09:03:23;;;;;;;7.63;2.38;;;27.00;81.10;;;;;;5073296;28;20113;-78
2024/01/11 09:05:51;;;;;;;7.47;2.65;;;26.90;81.30;;;;;;5080591;28;20068;-83
2024/01/11 09:08:19;;;;;;;7.22;2.60;;;26.80;81.40;;;;;;5077060;28;20017;-81
2024/01/11 09:10:46;;;;;;;8.25;2.83;;;26.80;81.50;;;;;;5084449;28;20063;-80
2024/01/11 09:13:15;;;;;;;5.03;2.60;;;26.80;81.80;;;;;;5077962;28;20036;-85
2024/01/11 09:15:44;;;;;;;8.82;3.55;;;26.70;81.80;;;;;;5072361;28;20060;-84
2024/01/11 09:18:12;;;;;;;9.73;5.47;;;26.70;81.90;;;;;;5071286;28;20067;-86
2024/01/11 09:20:39;;;;;;;8.75;3.38;;;26.70;82.00;;;;;;5080106;28;20084;-80
2024/01/11 09:23:07;;;;;;;7.30;2.42;;;26.70;81.90;;;;;;5064857;28;20031;-81
2024/01/11 09:25:34;;;;;;;9.43;2.50;;;26.70;82.00;;;;;;5070176;28;20032;-84
2024/01/11 09:28:04;;;;;;;7.95;1.98;;;26.70;81.90;;;;;;5070952;28;20029;-79
2024/01/11 09:30:32;;;;;;;6.40;2.13;;;26.70;81.90;;;;;;5075027;28;20365;-79
2024/01/11 09:32:59;;;;;;;5.07;1.85;;;26.70;81.90;;;;;;5056005;28;20457;-83
2024/01/11 09:35:27;;;;;;;7.75;1.90;;;26.60;81.80;;;;;;5080479;28;20035;-89
2024/01/11 09:37:55;;;;;;;4.18;1.70;;;26.60;81.70;;;;;;5070715;28;20119;-81
2024/01/11 09:40:22;;;;;;;7.45;1.90;;;26.70;81.60;;;;;;5075091;28;20066;-79
2024/01/11 09:42:49;;;;;;;5.80;1.63;;;26.70;81.50;;;;;;5085134;28;20115;-87
2024/01/11 09:45:18;;;;;;;5.85;1.98;;;26.70;81.50;;;;;;5085932;28;20024;-80
2024/01/11 09:47:46;;;;;;;8.25;1.73;;;26.60;81.60;;;;;;5069521;28;20111;-82
2024/01/11 09:50:20;;;;;;;3.63;1.55;;;26.70;81.50;;;;;;5064993;28;20020;-88
2024/01/11 09:52:49;;;;;;;6.85;2.10;;;26.70;81.40;;;;;;5083467;28;20031;-77
2024/01/11 09:55:18;;;;;;;5.25;1.30;;;26.70;81.60;;;;;;5085513;28;20602;-90
2024/01/11 09:57:50;;;;;;;8.55;1.80;;;26.70;81.60;;;;;;5087321;28;20501;-90
2024/01/11 10:00:22;;;;;;;6.60;2.58;;;26.60;81.70;;;;;;5078516;28;20031;-88
2024/01/11 10:02:49;;;;;;;5.20;1.85;;;26.60;81.70;;;;;;5086936;28;20364;-91
2024/01/11 10:05:20;;;;;;;6.22;1.50;;;26.60;81.60;;;;;;5073916;28;20111;-80
2024/01/11 10:07:47;;;;;;;7.57;1.63;;;26.60;81.70;;;;;;5072759;28;20047;-85
2024/01/11 10:10:18;;;;;;;6.57;1.52;;;26.60;81.50;;;;;;5075631;28;20043;-79
2024/01/11 10:12:47;;;;;;;8.63;2.72;;;26.60;81.50;;;;;;5052197;28;20344;-85
2024/01/11 10:15:15;;;;;;;5.90;1.70;;;26.60;81.40;;;;;;5071767;28;20076;-81
2024/01/11 10:17:46;;;;;;;4.65;1.30;;;26.60;81.40;;;;;;5072561;28;20024;-83
2024/01/11 10:20:23;;;;;;;3.13;1.30;;;26.60;81.40;;;;;;5072641;28;20030;-80
2024/01/11 10:22:52;;;;;;;4.60;1.40;;;26.50;81.30;;;;;;5077746;28;20028;-80
2024/01/11 10:25:20;;;;;;;6.22;1.42;;;26.50;81.30;;;;;;5070231;28;20032;-79
2024/01/11 10:27:48;;;;;;;5.68;1.52;;;26.50;81.30;;;;;;5076239;28;20021;-81
2024/01/11 10:30:22;;;;;;;5.18;1.60;;;26.60;81.20;;;;;;5071113;28;20035;-91
2024/01/11 10:32:50;;;;;;;5.43;1.43;;;26.50;81.10;;;;;;5072414;28;20021;-78
2024/01/11 10:35:18;;;;;;;6.90;1.83;;;26.50;81.00;;;;;;5079059;28;20304;-80
2024/01/11 10:37:48;;;;;;;3.47;1.40;;;26.50;80.80;;;;;;5087084;28;20032;-85
2024/01/11 10:40:17;;;;;;;7.47;1.40;;;26.50;80.80;;;;;;5059495;28;20479;-82
2024/01/11 10:42:49;;;;;;;5.25;1.50;;;26.40;80.80;;;;;;5072561;28;20081;-83
2024/01/11 10:45:18;;;;;;;4.22;1.60;;;26.50;80.80;;;;;;5074134;28;20048;-89
2024/01/11 10:47:59;;;;;;;6.95;1.52;;;26.40;80.70;;;;;;5063416;28;20394;-87
2024/01/11 10:50:30;;;;;;;5.47;1.52;;;26.40;80.70;;;;;;5079344;28;20017;-78
2024/01/11 10:53:32;;;;;;;6.03;1.40;;;26.40;80.70;;;;;;5059587;28;20024;-78
2024/01/11 10:56:01;;;;;;;4.40;1.38;;;26.40;80.70;;;;;;5065236;28;20123;-88
2024/01/11 10:58:30;;;;;;;6.13;1.52;;;26.40;80.70;;;;;;5060713;28;20032;-78
2024/01/11 11:00:59;;;;;;;5.25;1.40;;;26.40;80.70;;;;;;5075247;28;20070;-77
2024/01/11 11:03:28;;;;;;;10.30;1.83;;;26.40;80.70;;;;;;5074827;28;20156;-79
2024/01/11 11:05:57;;;;;;;7.03;1.83;;;26.40;80.70;;;;;;5065592;28;20356;-80
2024/01/11 11:08:26;;;;;;;7.53;1.73;;;26.40;80.80;;;;;;5081339;28;20028;-80
2024/01/11 11:11:04;;;;;;;6.18;1.20;;;26.40;80.80;;;;;;5076023;28;20031;-84
2024/01/11 11:13:34;;;;;;;5.05;1.30;;;26.40;80.80;;;;;;5064173;28;20064;-78
2024/01/11 11:16:03;;;;;;;4.28;1.20;;;26.30;80.80;;;;;;5071653;28;20115;-79
2024/01/11 11:18:34;;;;;;;5.13;1.27;;;26.40;80.70;;;;;;5057969;28;20024;-81
2024/01/11 11:21:07;;;;;;;7.68;1.63;;;26.40;80.60;;;;;;5091744;28;20024;-76
2024/01/11 11:23:34;;;;;;;9.25;1.40;;;26.30;80.80;;;;;;5075659;28;20039;-77
2024/01/11 11:26:10;;;;;;;7.72;1.70;;;26.30;80.80;;;;;;5077494;28;20050;-77
2024/01/11 11:28:38;;;;;;;4.43;1.15;;;26.30;80.80;;;;;;5079162;28;20069;-77
2024/01/11 11:31:05;;;;;;;4.60;1.40;;;26.30;80.80;;;;;;5057034;28;20025;-77
2024/01/11 11:33:33;;;;;;;4.45;1.30;;;26.30;80.90;;;;;;5075776;28;20111;-77
2024/01/11 11:36:00;;;;;;;4.47;1.20;;;26.30;80.90;;;;;;5070041;28;20386;-76
2024/01/11 11:38:30;;;;;;;6.10;1.15;;;26.30;81.00;;;;;;5095812;28;20024;-79
2024/01/11 11:41:01;;;;;;;5.00;1.40;;;26.30;81.00;;;;;;5091884;28;20035;-85
2024/01/11 11:43:30;;;;;;;4.40;1.35;;;26.30;81.10;;;;;;5072125;28;20361;-78
2024/01/11 11:45:57;;;;;;;5.38;1.15;;;26.20;81.10;;;;;;5075477;28;20501;-79
2024/01/11 11:48:38;;;;;;;7.38;1.40;;;26.30;81.10;;;;;;5077064;28;20032;-78
2024/01/11 11:51:13;;;;;;;5.95;1.20;;;26.30;81.20;;;;;;5095041;28;20080;-84
2024/01/11 11:53:46;;;;;;;7.03;1.40;;;26.20;81.20;;;;;;5074527;28;20021;-78
2024/01/11 11:56:16;;;;;;;5.90;1.42;;;26.30;81.30;;;;;;5088911;28;20513;-77
2024/01/11 11:58:45;;;;;;;5.45;1.15;;;26.20;81.30;;;;;;5078063;28;20431;-80
2024/01/11 12:01:14;;;;;;;6.90;1.27;;;26.20;81.30;;;;;;5072199;28;20020;-77
2024/01/11 12:03:50;;;;;;;6.90;1.40;;;26.20;81.40;;;;;;5079500;28;20025;-78
2024/01/11 12:06:19;;;;;;;4.80;1.27;;;26.20;81.30;;;;;;5090482;28;20024;-80
2024/01/11 12:08:48;;;;;;;3.85;1.27;;;26.20;81.30;;;;;;5070390;28;20121;-78
2024/01/11 12:11:24;;;;;;;6.75;1.50;;;26.10;81.40;;;;;;5076636;28;20028;-78
2024/01/11 12:13:53;;;;;;;6.60;1.23;;;26.10;81.40;;;;;;5094372;28;20038;-77
2024/01/11 12:16:21;;;;;;;6.03;1.48;;;26.10;81.50;;;;;;5087331;28;20040;-79
2024/01/11 12:18:50;;;;;;;4.10;1.13;;;26.10;81.40;;;;;;5081317;28;20226;-78
2024/01/11 12:21:17;;;;;;;5.25;1.52;;;26.00;81.60;;;;;;5084741;28;20035;-77
2024/01/11 12:23:45;;;;;;;4.00;1.38;;;26.00;81.50;;;;;;5086446;28;20024;-79
2024/01/11 12:26:14;;;;;;;4.40;1.00;;;26.00;81.60;;;;;;5086375;28;20024;-77
2024/01/11 12:28:42;;;;;;;6.63;1.15;;;26.00;81.50;;;;;;5076577;28;20252;-77
2024/01/11 12:31:10;;;;;;;5.95;1.30;;;26.00;81.60;;;;;;5068296;28;20074;-77
2024/01/11 12:33:41;;;;;;;7.15;1.75;;;26.00;81.70;;;;;;5088772;28;20106;-78
2024/01/11 12:36:10;;;;;;;3.50;1.15;;;25.90;81.60;;;;;;5089297;28;20036;-78
2024/01/11 12:38:41;;;;;;;6.28;1.35;;;26.00;81.70;;;;;;5090441;28;20020;-78
2024/01/11 12:41:10;;;;;;;6.85;1.60;;;26.00;81.80;;;;;;5094496;28;20031;-77
2024/01/11 12:43:37;;;;;;;7.78;1.23;;;26.00;81.80;;;;;;5089708;28;20024;-78
2024/01/11 12:46:05;;;;;;;7.22;1.55;;;25.90;81.90;;;;;;5090990;28;20038;-77
2024/01/11 12:48:32;;;;;;;8.23;1.50;;;25.90;81.90;;;;;;5093691;28;20379;-77
2024/01/11 12:51:00;;;;;;;7.10;1.40;;;25.90;81.90;;;;;;5093355;28;20055;-77